createdAt,value
2023-02-07T00:01:16.842Z,-3.96
2023-02-07T00:03:45.359Z,-3.94
2023-02-07T00:06:14.513Z,-3.92
2023-02-07T00:08:42.963Z,-3.91
2023-02-07T00:11:16.496Z,-3.95
2023-02-07T00:13:45.270Z,-4.02
2023-02-07T00:16:13.396Z,-4.06
2023-02-07T00:18:41.335Z,-4.11
2023-02-07T00:21:16.237Z,-4.14
2023-02-07T00:23:45.089Z,-4.16
2023-02-07T00:26:14.113Z,-4.19
2023-02-07T00:28:43.100Z,-4.24
2023-02-07T00:31:12.794Z,-4.32
2023-02-07T00:33:41.275Z,-4.40
2023-02-07T00:36:13.727Z,-4.46
2023-02-07T00:38:41.598Z,-4.48
2023-02-07T00:41:09.718Z,-4.49
2023-02-07T00:43:37.867Z,-4.46
2023-02-07T00:46:05.785Z,-4.42
2023-02-07T00:48:33.729Z,-4.40
2023-02-07T00:51:02.156Z,-4.38
2023-02-07T00:53:30.380Z,-4.38
2023-02-07T00:55:58.194Z,-4.38
2023-02-07T00:58:26.254Z,-4.38
2023-02-07T01:00:54.133Z,-4.42
2023-02-07T01:03:22.222Z,-4.44
2023-02-07T01:05:50.893Z,-4.40
2023-02-07T01:08:18.874Z,-4.36
2023-02-07T01:10:47.131Z,-4.33
2023-02-07T01:13:16.037Z,-4.26
2023-02-07T01:15:45.724Z,-4.18
2023-02-07T01:18:14.229Z,-4.10
2023-02-07T01:20:41.998Z,-4.06
2023-02-07T01:23:10.659Z,-4.06
2023-02-07T01:25:39.492Z,-4.06
2023-02-07T01:28:07.691Z,-4.06
2023-02-07T01:30:35.899Z,-4.06
2023-02-07T01:33:03.804Z,-4.04
2023-02-07T01:35:33.184Z,-4.03
2023-02-07T01:38:02.805Z,-4.00
2023-02-07T01:40:30.877Z,-4.00
2023-02-07T01:42:59.866Z,-4.01
2023-02-07T01:45:38.461Z,-4.02
2023-02-07T01:48:15.634Z,-4.02
2023-02-07T01:50:48.246Z,-4.01
2023-02-07T01:53:17.622Z,-4.00
2023-02-07T01:55:46.380Z,-4.01
2023-02-07T01:58:15.042Z,-4.02
2023-02-07T02:00:43.904Z,-4.07
2023-02-07T02:03:12.002Z,-4.16
2023-02-07T02:05:40.212Z,-4.18
2023-02-07T02:08:09.081Z,-4.22
2023-02-07T02:10:43.320Z,-4.25
2023-02-07T02:13:28.782Z,-4.25
2023-02-07T02:16:13.171Z,-4.22
2023-02-07T02:18:43.648Z,-4.20
2023-02-07T02:21:34.843Z,-4.21
2023-02-07T02:24:21.317Z,-4.24
2023-02-07T02:26:52.480Z,-4.26
2023-02-07T02:29:26.594Z,-4.24
2023-02-07T02:32:13.589Z,-4.23
2023-02-07T02:34:52.352Z,-4.25
2023-02-07T02:37:30.437Z,-4.25
2023-02-07T02:40:28.551Z,-4.25
2023-02-07T02:43:01.474Z,-4.26
2023-02-07T02:45:36.742Z,-4.26
2023-02-07T02:48:06.355Z,-4.25
2023-02-07T02:50:34.868Z,-4.23
2023-02-07T02:53:02.762Z,-4.22
2023-02-07T02:55:45.840Z,-4.23
2023-02-07T02:58:25.715Z,-4.25
2023-02-07T03:01:03.766Z,-4.28
2023-02-07T03:03:31.622Z,-4.28
2023-02-07T03:06:19.509Z,-4.29
2023-02-07T03:08:54.300Z,-4.29
2023-02-07T03:11:24.244Z,-4.28
2023-02-07T03:14:10.932Z,-4.28
2023-02-07T03:16:55.763Z,-4.28
2023-02-07T03:19:27.670Z,-4.29
2023-02-07T03:22:10.708Z,-4.32
2023-02-07T03:24:41.777Z,-4.37
2023-02-07T03:27:12.536Z,-4.40
2023-02-07T03:29:43.060Z,-4.39
2023-02-07T03:32:12.153Z,-4.42
2023-02-07T03:34:54.036Z,-4.45
2023-02-07T03:37:31.501Z,-4.47
2023-02-07T03:39:59.611Z,-4.44
2023-02-07T03:42:32.130Z,-4.39
2023-02-07T03:45:01.229Z,-4.34
2023-02-07T03:47:29.356Z,-4.31
2023-02-07T03:49:57.527Z,-4.28
2023-02-07T03:52:25.611Z,-4.27
2023-02-07T03:54:53.453Z,-4.29
2023-02-07T03:57:21.400Z,-4.31
2023-02-07T03:59:49.460Z,-4.29
2023-02-07T04:02:17.213Z,-4.27
2023-02-07T04:04:45.036Z,-4.23
2023-02-07T04:07:12.956Z,-4.19
2023-02-07T04:09:40.746Z,-4.16
2023-02-07T04:12:08.616Z,-4.18
2023-02-07T04:14:36.822Z,-4.17
2023-02-07T04:17:04.704Z,-4.17
2023-02-07T04:19:32.599Z,-4.18
2023-02-07T04:22:00.529Z,-4.18
2023-02-07T04:24:31.841Z,-4.19
2023-02-07T04:26:59.657Z,-4.18
2023-02-07T04:29:27.822Z,-4.17
2023-02-07T04:31:57.955Z,-4.18
2023-02-07T04:34:26.665Z,-4.18
2023-02-07T04:36:54.674Z,-4.17
2023-02-07T04:39:22.508Z,-4.20
2023-02-07T04:41:50.422Z,-4.23
2023-02-07T04:44:18.243Z,-4.26
2023-02-07T04:46:46.431Z,-4.29
2023-02-07T04:49:14.999Z,-4.29
2023-02-07T04:51:42.909Z,-4.29
2023-02-07T04:54:11.385Z,-4.29
2023-02-07T04:56:39.445Z,-4.33
2023-02-07T04:59:07.268Z,-4.31
2023-02-07T05:01:35.072Z,-4.29
2023-02-07T05:04:02.973Z,-4.29
2023-02-07T05:06:30.716Z,-4.25
2023-02-07T05:08:58.808Z,-4.21
2023-02-07T05:11:26.608Z,-4.13
2023-02-07T05:13:54.435Z,-4.06
2023-02-07T05:16:22.586Z,-4.03
2023-02-07T05:18:50.706Z,-4.05
2023-02-07T05:21:18.951Z,-4.04
2023-02-07T05:23:46.754Z,-4.07
2023-02-07T05:26:15.312Z,-4.09
2023-02-07T05:28:43.451Z,-4.10
2023-02-07T05:31:11.419Z,-4.10
2023-02-07T05:33:42.157Z,-4.14
2023-02-07T05:36:10.435Z,-4.26
2023-02-07T05:38:38.269Z,-4.46
2023-02-07T05:41:06.285Z,-4.57
2023-02-07T05:43:34.163Z,-4.62
2023-02-07T05:46:01.983Z,-4.64
2023-02-07T05:48:29.808Z,-4.68
2023-02-07T05:50:57.715Z,-4.70
2023-02-07T05:53:25.514Z,-4.74
2023-02-07T05:55:53.280Z,-4.78
2023-02-07T05:58:21.362Z,-4.79
2023-02-07T06:00:49.310Z,-4.79
2023-02-07T06:03:17.142Z,-4.81
2023-02-07T06:05:44.944Z,-4.83
2023-02-07T06:08:13.021Z,-4.84
2023-02-07T06:10:40.785Z,-4.85
2023-02-07T06:13:08.621Z,-4.85
2023-02-07T06:15:36.762Z,-4.86
2023-02-07T06:18:05.277Z,-4.86
2023-02-07T06:20:33.079Z,-4.83
2023-02-07T06:23:01.014Z,-4.84
2023-02-07T06:25:29.242Z,-4.84
2023-02-07T06:27:57.085Z,-4.82
2023-02-07T06:30:24.892Z,-4.79
2023-02-07T06:32:52.801Z,-4.74
2023-02-07T06:35:20.625Z,-3.64
2023-02-07T06:37:48.448Z,-3.31
2023-02-07T06:40:16.369Z,-3.48
2023-02-07T06:42:44.812Z,-3.57
2023-02-07T06:45:12.596Z,-3.61
2023-02-07T06:47:40.428Z,-3.70
2023-02-07T06:50:09.305Z,-3.74
2023-02-07T06:52:37.394Z,-3.75
2023-02-07T06:55:05.248Z,-3.73
2023-02-07T06:57:33.681Z,-3.73
2023-02-07T07:00:01.748Z,-3.71
2023-02-07T07:02:29.979Z,-3.65
2023-02-07T07:04:57.945Z,-3.64
2023-02-07T07:07:25.877Z,-3.66
2023-02-07T07:09:53.699Z,-3.63
2023-02-07T07:12:21.791Z,-3.59
2023-02-07T07:14:50.491Z,-3.57
2023-02-07T07:17:18.712Z,-3.58
2023-02-07T07:19:46.494Z,-3.61
2023-02-07T07:22:14.423Z,-3.65
2023-02-07T07:24:42.217Z,-3.66
2023-02-07T07:27:10.138Z,-3.61
2023-02-07T07:29:38.710Z,-3.61
2023-02-07T07:32:06.774Z,-3.63
2023-02-07T07:34:34.803Z,-3.61
2023-02-07T07:37:02.722Z,-3.58
2023-02-07T07:39:30.563Z,-3.53
2023-02-07T07:41:58.759Z,-3.52
2023-02-07T07:44:38.519Z,-3.46
2023-02-07T07:47:09.761Z,-3.40
2023-02-07T07:49:37.650Z,-3.33
2023-02-07T07:52:05.991Z,-3.20
2023-02-07T07:54:33.832Z,-3.06
2023-02-07T07:57:01.850Z,-3.03
2023-02-07T07:59:29.894Z,-2.98
2023-02-07T08:01:57.892Z,-2.91
2023-02-07T08:04:26.115Z,-2.83
2023-02-07T08:06:54.460Z,-2.80
2023-02-07T08:09:22.250Z,-2.77
2023-02-07T08:11:50.022Z,-2.72
2023-02-07T08:14:18.148Z,-2.58
2023-02-07T08:16:46.005Z,-2.47
2023-02-07T08:19:14.290Z,-2.41
2023-02-07T08:21:44.681Z,-2.39
2023-02-07T08:24:12.559Z,-2.39
2023-02-07T08:26:40.331Z,-2.39
2023-02-07T08:29:08.340Z,-2.36
2023-02-07T08:31:36.157Z,-2.26
2023-02-07T08:34:04.502Z,-2.19
2023-02-07T08:36:33.104Z,-2.11
2023-02-07T08:39:01.110Z,-2.03
2023-02-07T08:41:28.919Z,-1.98
2023-02-07T08:43:56.663Z,-2.02
2023-02-07T08:46:24.870Z,-2.03
2023-02-07T08:48:52.748Z,-1.99
2023-02-07T08:51:21.734Z,-1.96
2023-02-07T08:53:49.661Z,-1.91
2023-02-07T08:56:17.441Z,-1.89
2023-02-07T08:58:45.944Z,-1.88
2023-02-07T09:01:13.916Z,-1.84
2023-02-07T09:03:42.313Z,-1.80
2023-02-07T09:06:11.136Z,-1.79
2023-02-07T09:08:39.029Z,-1.82
2023-02-07T09:11:10.098Z,-1.79
2023-02-07T09:13:38.131Z,-1.76
2023-02-07T09:16:06.000Z,-1.74
2023-02-07T09:18:35.007Z,-1.69
2023-02-07T09:21:03.590Z,-1.73
2023-02-07T09:23:33.182Z,-1.80
2023-02-07T09:26:02.621Z,-1.79
2023-02-07T09:28:30.795Z,-1.75
2023-02-07T09:30:59.007Z,-1.71
2023-02-07T09:33:27.336Z,-1.67
2023-02-07T09:35:55.183Z,-1.67
2023-02-07T09:38:23.833Z,-1.65
2023-02-07T09:40:52.319Z,-1.64
2023-02-07T09:43:38.060Z,-1.66
2023-02-07T09:46:17.554Z,-1.67
2023-02-07T09:48:55.568Z,-1.74
2023-02-07T09:51:24.343Z,-1.76
2023-02-07T09:54:05.963Z,-1.82
2023-02-07T09:56:35.152Z,-1.89
2023-02-07T09:59:21.649Z,-1.89
2023-02-07T10:01:51.802Z,-1.85
2023-02-07T10:04:22.554Z,-1.86
2023-02-07T10:06:53.573Z,-1.85
2023-02-07T10:09:26.320Z,-1.79
2023-02-07T10:11:56.949Z,-1.71
2023-02-07T10:14:31.358Z,-1.61
2023-02-07T10:17:16.510Z,-1.51
2023-02-07T10:19:56.472Z,-1.45
2023-02-07T10:22:35.117Z,-1.41
2023-02-07T10:25:10.343Z,-1.32
2023-02-07T10:28:02.726Z,-1.26
2023-02-07T10:30:32.100Z,-1.23
2023-02-07T10:33:02.040Z,-1.19
2023-02-07T10:35:37.330Z,-1.18
2023-02-07T10:38:21.338Z,-1.20
2023-02-07T10:40:53.340Z,-1.16
2023-02-07T10:43:24.323Z,-1.10
2023-02-07T10:46:04.509Z,-1.07
2023-02-07T10:48:34.245Z,-1.06
2023-02-07T10:51:12.055Z,-1.08
2023-02-07T10:53:54.678Z,-1.08
2023-02-07T10:56:24.549Z,-1.08
2023-02-07T10:58:54.258Z,-1.09
2023-02-07T11:01:24.002Z,-1.12
2023-02-07T11:03:52.457Z,-1.16
2023-02-07T11:06:30.856Z,-1.17
2023-02-07T11:09:25.607Z,-1.17
2023-02-07T11:11:55.052Z,-1.17
2023-02-07T11:14:28.332Z,-1.16
2023-02-07T11:16:57.271Z,-1.14
2023-02-07T11:19:30.857Z,-1.13
2023-02-07T11:22:10.548Z,-1.09
2023-02-07T11:24:38.551Z,-1.02
2023-02-07T11:27:12.560Z,-0.95
2023-02-07T11:29:47.217Z,-0.94
2023-02-07T11:32:15.876Z,-0.91
2023-02-07T11:34:43.965Z,-0.89
2023-02-07T11:37:21.361Z,-0.86
2023-02-07T11:39:50.465Z,-0.80
2023-02-07T11:42:20.129Z,-0.79
2023-02-07T11:44:48.638Z,-0.72
2023-02-07T11:47:18.375Z,-0.62
2023-02-07T11:49:52.706Z,-0.51
2023-02-07T11:52:21.647Z,-0.51
2023-02-07T11:54:55.160Z,-0.51
2023-02-07T11:57:23.862Z,-0.48
2023-02-07T12:00:11.059Z,-0.43
2023-02-07T12:02:51.796Z,-0.35
2023-02-07T12:05:22.008Z,-0.25
2023-02-07T12:07:51.142Z,-0.23
2023-02-07T12:10:30.463Z,-0.17
2023-02-07T12:13:05.638Z,-0.12
2023-02-07T12:15:40.011Z,-0.08
2023-02-07T12:18:10.830Z,-0.02
2023-02-07T12:20:41.654Z,0.08
2023-02-07T12:23:41.332Z,0.17
2023-02-07T12:26:16.763Z,0.26
2023-02-07T12:28:52.097Z,0.32
2023-02-07T12:31:26.190Z,0.34
2023-02-07T12:34:01.674Z,0.38
2023-02-07T12:36:39.172Z,0.39
2023-02-07T12:39:26.003Z,0.33
2023-02-07T12:41:57.102Z,0.27
2023-02-07T12:44:35.315Z,0.29
2023-02-07T12:47:15.604Z,0.30
2023-02-07T12:49:54.204Z,0.34
2023-02-07T12:52:43.010Z,0.40
2023-02-07T12:55:26.091Z,0.41
2023-02-07T12:58:04.329Z,0.39
2023-02-07T13:00:39.511Z,0.38
2023-02-07T13:03:07.259Z,0.40
2023-02-07T13:05:47.781Z,0.40
2023-02-07T13:08:21.842Z,0.38
2023-02-07T13:11:04.512Z,0.36
2023-02-07T13:13:38.710Z,0.42
2023-02-07T13:16:06.499Z,0.46
2023-02-07T13:18:53.022Z,0.49
2023-02-07T13:21:21.099Z,0.55
2023-02-07T13:23:49.532Z,0.60
2023-02-07T13:26:20.437Z,0.63
2023-02-07T13:28:52.979Z,0.69
2023-02-07T13:31:24.335Z,0.80
2023-02-07T13:33:53.213Z,0.84
2023-02-07T13:36:39.843Z,0.76
2023-02-07T13:39:07.851Z,0.65
2023-02-07T13:41:54.380Z,0.67
2023-02-07T13:44:26.884Z,0.65
2023-02-07T13:46:56.545Z,0.60
2023-02-07T13:49:24.503Z,0.66
2023-02-07T13:52:03.627Z,0.72
2023-02-07T13:54:50.571Z,0.80
2023-02-07T13:57:55.420Z,0.84
2023-02-07T14:00:28.217Z,0.75
2023-02-07T14:03:00.478Z,0.73
2023-02-07T14:05:43.972Z,0.75
2023-02-07T14:08:17.629Z,0.82
2023-02-07T14:10:50.582Z,0.86
2023-02-07T14:13:21.272Z,0.80
2023-02-07T14:15:49.346Z,0.78
2023-02-07T14:18:37.089Z,0.76
2023-02-07T14:21:06.610Z,0.76
2023-02-07T14:23:49.720Z,0.71
2023-02-07T14:26:36.737Z,0.65
2023-02-07T14:29:22.879Z,0.64
2023-02-07T14:31:51.062Z,0.63
2023-02-07T14:34:23.004Z,0.62
2023-02-07T14:36:51.724Z,0.56
2023-02-07T14:39:19.489Z,0.48
2023-02-07T14:41:49.473Z,0.42
2023-02-07T14:44:23.521Z,0.39
2023-02-07T14:46:53.339Z,0.37
2023-02-07T14:49:29.884Z,0.37
2023-02-07T14:52:07.993Z,0.34
2023-02-07T14:54:37.069Z,0.33
2023-02-07T14:57:08.696Z,0.33
2023-02-07T14:59:43.079Z,0.34
2023-02-07T15:02:29.599Z,0.37
2023-02-07T15:04:57.986Z,0.38
2023-02-07T15:07:25.887Z,0.40
2023-02-07T15:09:53.936Z,0.42
2023-02-07T15:12:27.239Z,0.41
2023-02-07T15:14:57.141Z,0.41
2023-02-07T15:17:33.374Z,0.39
2023-02-07T15:20:07.362Z,0.35
2023-02-07T15:22:35.405Z,0.32
2023-02-07T15:25:03.538Z,0.30
2023-02-07T15:27:31.747Z,0.28
2023-02-07T15:30:00.759Z,0.24
2023-02-07T15:32:31.317Z,0.20
2023-02-07T15:35:11.492Z,0.16
2023-02-07T15:37:39.936Z,0.12
2023-02-07T15:40:13.544Z,0.06
2023-02-07T15:42:52.321Z,0.04
2023-02-07T15:45:27.813Z,-0.00
2023-02-07T15:47:56.591Z,-0.04
2023-02-07T15:50:25.555Z,-0.08
2023-02-07T15:52:55.214Z,-0.12
2023-02-07T15:55:34.584Z,-0.15
2023-02-07T15:58:03.556Z,-0.19
2023-02-07T16:00:36.178Z,-0.21
2023-02-07T16:03:06.022Z,-0.25
2023-02-07T16:05:38.996Z,-0.28
2023-02-07T16:08:27.105Z,-0.31
2023-02-07T16:10:54.824Z,-0.36
2023-02-07T16:13:22.686Z,-0.38
2023-02-07T16:15:57.901Z,-0.37
2023-02-07T16:18:36.666Z,-0.38
2023-02-07T16:21:12.781Z,-0.40
2023-02-07T16:23:41.187Z,-0.41
2023-02-07T16:26:09.392Z,-0.42
2023-02-07T16:28:37.495Z,-0.46
2023-02-07T16:31:06.075Z,-0.48
2023-02-07T16:33:34.358Z,-0.51
2023-02-07T16:36:02.233Z,-0.58
2023-02-07T16:38:30.769Z,-0.64
2023-02-07T16:40:59.931Z,-0.67
2023-02-07T16:43:35.641Z,-0.69
2023-02-07T16:46:04.092Z,-0.71
2023-02-07T16:48:32.124Z,-0.74
2023-02-07T16:51:01.615Z,-0.76
2023-02-07T16:53:29.600Z,-0.78
2023-02-07T16:55:58.182Z,-0.77
2023-02-07T16:58:28.856Z,-0.76
2023-02-07T17:00:56.881Z,-0.76
2023-02-07T17:03:24.832Z,-0.80
2023-02-07T17:05:52.657Z,-0.80
2023-02-07T17:08:27.665Z,-0.81
2023-02-07T17:10:58.782Z,-0.81
2023-02-07T17:13:26.990Z,-0.81
2023-02-07T17:15:55.364Z,-0.83
2023-02-07T17:18:23.238Z,-0.84
2023-02-07T17:20:51.260Z,-0.84
2023-02-07T17:23:20.788Z,-0.85
2023-02-07T17:25:48.749Z,-0.84
2023-02-07T17:28:16.687Z,-0.83
2023-02-07T17:30:45.381Z,-0.80
2023-02-07T17:33:13.742Z,-0.79
2023-02-07T17:35:41.812Z,-0.78
2023-02-07T17:38:10.248Z,-0.80
2023-02-07T17:40:39.570Z,-0.84
2023-02-07T17:43:08.873Z,-0.86
2023-02-07T17:45:38.155Z,-0.87
2023-02-07T17:48:06.480Z,-0.89
2023-02-07T17:50:36.611Z,-0.90
2023-02-07T17:53:04.539Z,-0.94
2023-02-07T17:55:33.544Z,-0.95
2023-02-07T17:58:03.660Z,-0.96
2023-02-07T18:00:33.926Z,-0.97
2023-02-07T18:03:02.660Z,-0.95
2023-02-07T18:05:30.612Z,-0.98
2023-02-07T18:07:58.544Z,-1.01
2023-02-07T18:10:28.739Z,-1.04
2023-02-07T18:12:57.236Z,-1.08
2023-02-07T18:15:25.154Z,-1.12
2023-02-07T18:17:53.762Z,-1.17
2023-02-07T18:20:26.275Z,-1.19
2023-02-07T18:22:55.562Z,-1.18
2023-02-07T18:25:24.824Z,-1.17
2023-02-07T18:27:53.034Z,-1.15
2023-02-07T18:30:22.866Z,-1.12
2023-02-07T18:32:50.920Z,-1.12
2023-02-07T18:35:18.689Z,-1.16
2023-02-07T18:37:46.716Z,-1.15
2023-02-07T18:40:16.032Z,-1.15
2023-02-07T18:42:43.847Z,-1.16
2023-02-07T18:45:14.113Z,-1.15
2023-02-07T18:47:42.654Z,-1.14
2023-02-07T18:50:11.506Z,-1.11
2023-02-07T18:52:39.412Z,-1.11
2023-02-07T18:55:07.447Z,-1.14
2023-02-07T18:57:35.437Z,-1.21
2023-02-07T19:00:06.650Z,-1.21
2023-02-07T19:02:34.660Z,-1.19
2023-02-07T19:05:02.935Z,-1.14
2023-02-07T19:07:30.793Z,-1.11
2023-02-07T19:09:59.179Z,-1.11
2023-02-07T19:12:27.208Z,-1.12
2023-02-07T19:14:55.066Z,-1.13
2023-02-07T19:17:25.129Z,-1.16
2023-02-07T19:19:53.347Z,-1.20
2023-02-07T19:22:30.060Z,-1.25
2023-02-07T19:25:03.599Z,-1.29
2023-02-07T19:27:31.777Z,-1.36
2023-02-07T19:29:59.728Z,-1.43
2023-02-07T19:32:28.102Z,-1.43
2023-02-07T19:34:56.257Z,-1.46
2023-02-07T19:37:24.077Z,-1.47
2023-02-07T19:39:53.580Z,-1.49
2023-02-07T19:42:21.980Z,-1.50
2023-02-07T19:44:54.784Z,-1.52
2023-02-07T19:47:23.046Z,-1.56
2023-02-07T19:49:52.730Z,-1.59
2023-02-07T19:52:20.821Z,-1.63
2023-02-07T19:54:49.155Z,-1.69
2023-02-07T19:57:17.257Z,-1.74
2023-02-07T19:59:46.298Z,-1.76
2023-02-07T20:02:14.857Z,-1.78
2023-02-07T20:04:42.827Z,-1.80
2023-02-07T20:07:10.785Z,-1.81
2023-02-07T20:09:39.077Z,-1.86
2023-02-07T20:12:07.423Z,-1.89
2023-02-07T20:14:36.910Z,-1.91
2023-02-07T20:17:05.230Z,-1.95
2023-02-07T20:19:38.991Z,-1.97
2023-02-07T20:22:06.885Z,-1.99
2023-02-07T20:24:34.617Z,-1.98
2023-02-07T20:27:02.479Z,-1.99
2023-02-07T20:29:32.515Z,-2.01
2023-02-07T20:32:00.480Z,-2.05
2023-02-07T20:34:28.328Z,-2.08
2023-02-07T20:36:56.113Z,-2.07
2023-02-07T20:39:24.996Z,-2.08
2023-02-07T20:41:53.105Z,-2.13
2023-02-07T20:44:22.439Z,-2.22
2023-02-07T20:46:51.303Z,-2.28
2023-02-07T20:49:20.778Z,-2.27
2023-02-07T20:51:49.707Z,-2.23
2023-02-07T20:54:18.408Z,-2.20
2023-02-07T20:56:46.650Z,-2.17
2023-02-07T20:59:19.170Z,-2.13
2023-02-07T21:01:47.071Z,-2.09
2023-02-07T21:04:14.795Z,-2.07
2023-02-07T21:06:45.304Z,-2.07
2023-02-07T21:09:14.426Z,-2.05
2023-02-07T21:11:43.719Z,-2.04
2023-02-07T21:14:19.442Z,-2.03
2023-02-07T21:16:47.324Z,-2.00
2023-02-07T21:19:15.425Z,-1.99
2023-02-07T21:21:43.865Z,-2.01
2023-02-07T21:24:11.614Z,-1.99
2023-02-07T21:26:40.105Z,-1.92
2023-02-07T21:29:08.168Z,-1.91
2023-02-07T21:31:36.321Z,-1.87
2023-02-07T21:34:05.182Z,-1.79
2023-02-07T21:36:34.409Z,-1.73
2023-02-07T21:39:04.707Z,-1.67
2023-02-07T21:41:32.855Z,-1.64
2023-02-07T21:44:01.177Z,-1.63
2023-02-07T21:46:30.156Z,-1.62
2023-02-07T21:49:01.538Z,-1.63
2023-02-07T21:51:49.325Z,-1.65
2023-02-07T21:54:17.314Z,-1.66
2023-02-07T21:56:45.748Z,-1.71
2023-02-07T21:59:15.172Z,-1.67
2023-02-07T22:01:43.799Z,-1.67
2023-02-07T22:04:12.313Z,-1.66
2023-02-07T22:06:42.436Z,-1.66
2023-02-07T22:09:12.748Z,-1.66
2023-02-07T22:11:40.873Z,-1.67
2023-02-07T22:14:10.101Z,-1.69
2023-02-07T22:16:38.076Z,-1.68
2023-02-07T22:19:07.184Z,-1.67
2023-02-07T22:21:36.540Z,-1.69
2023-02-07T22:24:05.426Z,-1.70
2023-02-07T22:26:34.196Z,-1.71
2023-02-07T22:29:02.654Z,-1.72
2023-02-07T22:31:31.531Z,-1.69
2023-02-07T22:34:01.140Z,-1.68
2023-02-07T22:36:30.294Z,-1.68
2023-02-07T22:38:58.912Z,-1.70
2023-02-07T22:41:27.158Z,-1.71
2023-02-07T22:43:55.193Z,-1.72
2023-02-07T22:46:24.491Z,-1.70
2023-02-07T22:48:53.398Z,-1.68
2023-02-07T22:51:21.245Z,-1.64
2023-02-07T22:53:50.111Z,-1.63
2023-02-07T22:56:18.425Z,-1.63
2023-02-07T22:58:46.669Z,-1.61
2023-02-07T23:01:25.301Z,-1.59
2023-02-07T23:03:53.681Z,-1.57
2023-02-07T23:06:22.186Z,-1.55
2023-02-07T23:08:51.260Z,-1.53
2023-02-07T23:11:19.762Z,-1.51
2023-02-07T23:13:48.081Z,-1.50
2023-02-07T23:16:18.028Z,-1.50
2023-02-07T23:18:45.935Z,-1.53
2023-02-07T23:21:15.239Z,-1.56
2023-02-07T23:23:43.740Z,-1.56
2023-02-07T23:26:13.602Z,-1.56
2023-02-07T23:28:42.140Z,-1.55
2023-02-07T23:31:10.941Z,-1.55
2023-02-07T23:33:39.195Z,-1.53
2023-02-07T23:36:08.080Z,-1.55
2023-02-07T23:38:36.633Z,-1.54
2023-02-07T23:41:04.929Z,-1.51
2023-02-07T23:43:33.023Z,-1.48
2023-02-07T23:46:00.969Z,-1.47
2023-02-07T23:48:46.972Z,-1.47
2023-02-07T23:51:15.143Z,-1.45
2023-02-07T23:53:43.444Z,-1.40
2023-02-07T23:56:16.206Z,-1.37
2023-02-07T23:58:45.396Z,-1.29
